sensor_id;sensor_type;location;lat;lon;timestamp;temperature;humidity
69084;SHT31;56185;48.526;9.044;2023-11-19T00:01:36;8.40;90.66
69084;SHT31;56185;48.526;9.044;2023-11-19T00:04:07;8.37;91.08
69084;SHT31;56185;48.526;9.044;2023-11-19T00:06:32;8.42;91.08
69084;SHT31;56185;48.526;9.044;2023-11-19T00:08:57;8.49;90.81
69084;SHT31;56185;48.526;9.044;2023-11-19T00:11:23;8.19;92.01
69084;SHT31;56185;48.526;9.044;2023-11-19T00:13:48;8.39;91.82
69084;SHT31;56185;48.526;9.044;2023-11-19T00:16:13;8.47;91.28
69084;SHT31;56185;48.526;9.044;2023-11-19T00:18:39;8.52;91.36
69084;SHT31;56185;48.526;9.044;2023-11-19T00:21:04;8.33;91.92
69084;SHT31;56185;48.526;9.044;2023-11-19T00:23:29;8.50;91.63
69084;SHT31;56185;48.526;9.044;2023-11-19T00:25:54;8.53;91.49
69084;SHT31;56185;48.526;9.044;2023-11-19T00:28:20;8.57;91.82
69084;SHT31;56185;48.526;9.044;2023-11-19T00:30:45;8.57;91.79
69084;SHT31;56185;48.526;9.044;2023-11-19T00:33:10;8.56;91.75
69084;SHT31;56185;48.526;9.044;2023-11-19T00:35:36;8.47;92.14
69084;SHT31;56185;48.526;9.044;2023-11-19T00:38:02;8.56;92.06
69084;SHT31;56185;48.526;9.044;2023-11-19T00:40:27;8.53;92.22
69084;SHT31;56185;48.526;9.044;2023-11-19T00:42:52;8.57;91.64
69084;SHT31;56185;48.526;9.044;2023-11-19T00:45:17;8.54;91.78
69084;SHT31;56185;48.526;9.044;2023-11-19T00:47:43;8.61;91.86
69084;SHT31;56185;48.526;9.044;2023-11-19T00:50:08;8.61;92.08
69084;SHT31;56185;48.526;9.044;2023-11-19T00:52:34;8.61;92.13
69084;SHT31;56185;48.526;9.044;2023-11-19T00:54:59;8.67;91.94
69084;SHT31;56185;48.526;9.044;2023-11-19T00:57:24;8.70;92.00
69084;SHT31;56185;48.526;9.044;2023-11-19T00:59:49;8.74;91.40
69084;SHT31;56185;48.526;9.044;2023-11-19T01:02:15;8.73;91.92
69084;SHT31;56185;48.526;9.044;2023-11-19T01:04:40;8.73;91.81
69084;SHT31;56185;48.526;9.044;2023-11-19T01:07:05;8.75;91.91
69084;SHT31;56185;48.526;9.044;2023-11-19T01:09:31;8.78;92.15
69084;SHT31;56185;48.526;9.044;2023-11-19T01:11:57;8.65;92.15
69084;SHT31;56185;48.526;9.044;2023-11-19T01:14:22;8.82;92.07
69084;SHT31;56185;48.526;9.044;2023-11-19T01:16:47;8.81;92.05
69084;SHT31;56185;48.526;9.044;2023-11-19T01:19:12;8.73;92.46
69084;SHT31;56185;48.526;9.044;2023-11-19T01:21:38;8.87;92.16
69084;SHT31;56185;48.526;9.044;2023-11-19T01:24:03;8.78;92.50
69084;SHT31;56185;48.526;9.044;2023-11-19T01:26:28;8.82;92.38
69084;SHT31;56185;48.526;9.044;2023-11-19T01:28:54;8.82;92.72
69084;SHT31;56185;48.526;9.044;2023-11-19T01:31:19;8.81;92.65
69084;SHT31;56185;48.526;9.044;2023-11-19T01:33:44;8.94;92.24
69084;SHT31;56185;48.526;9.044;2023-11-19T01:36:13;8.88;92.43
69084;SHT31;56185;48.526;9.044;2023-11-19T01:38:38;8.88;92.40
69084;SHT31;56185;48.526;9.044;2023-11-19T01:41:04;8.91;92.95
69084;SHT31;56185;48.526;9.044;2023-11-19T01:43:36;8.81;92.60
69084;SHT31;56185;48.526;9.044;2023-11-19T01:46:03;8.92;92.86
69084;SHT31;56185;48.526;9.044;2023-11-19T01:48:30;8.95;92.82
69084;SHT31;56185;48.526;9.044;2023-11-19T01:50:56;8.77;93.37
69084;SHT31;56185;48.526;9.044;2023-11-19T01:53:22;8.89;93.26
69084;SHT31;56185;48.526;9.044;2023-11-19T01:55:48;8.87;93.78
69084;SHT31;56185;48.526;9.044;2023-11-19T01:58:14;9.00;93.36
69084;SHT31;56185;48.526;9.044;2023-11-19T02:00:39;8.98;93.20
69084;SHT31;56185;48.526;9.044;2023-11-19T02:03:06;8.88;93.66
69084;SHT31;56185;48.526;9.044;2023-11-19T02:05:32;8.95;93.58
69084;SHT31;56185;48.526;9.044;2023-11-19T02:07:57;8.87;93.74
69084;SHT31;56185;48.526;9.044;2023-11-19T02:10:22;8.91;93.77
69084;SHT31;56185;48.526;9.044;2023-11-19T02:12:47;9.05;93.36
69084;SHT31;56185;48.526;9.044;2023-11-19T02:15:13;9.12;93.24
69084;SHT31;56185;48.526;9.044;2023-11-19T02:17:38;9.14;93.35
69084;SHT31;56185;48.526;9.044;2023-11-19T02:20:04;9.14;92.91
69084;SHT31;56185;48.526;9.044;2023-11-19T02:22:30;9.11;93.18
69084;SHT31;56185;48.526;9.044;2023-11-19T02:24:59;9.16;93.50
69084;SHT31;56185;48.526;9.044;2023-11-19T02:27:58;9.02;93.72
69084;SHT31;56185;48.526;9.044;2023-11-19T02:30:24;8.92;94.29
69084;SHT31;56185;48.526;9.044;2023-11-19T02:32:49;9.08;94.47
69084;SHT31;56185;48.526;9.044;2023-11-19T02:35:15;9.10;93.81
69084;SHT31;56185;48.526;9.044;2023-11-19T02:37:40;9.22;93.68
69084;SHT31;56185;48.526;9.044;2023-11-19T02:40:06;9.23;93.26
69084;SHT31;56185;48.526;9.044;2023-11-19T02:42:31;9.26;93.51
69084;SHT31;56185;48.526;9.044;2023-11-19T02:44:56;9.26;93.20
69084;SHT31;56185;48.526;9.044;2023-11-19T02:47:22;9.29;93.09
69084;SHT31;56185;48.526;9.044;2023-11-19T02:49:47;9.26;93.41
69084;SHT31;56185;48.526;9.044;2023-11-19T02:52:13;9.33;93.54
69084;SHT31;56185;48.526;9.044;2023-11-19T02:54:38;9.36;93.26
69084;SHT31;56185;48.526;9.044;2023-11-19T02:57:04;9.29;93.62
69084;SHT31;56185;48.526;9.044;2023-11-19T02:59:29;9.29;94.02
69084;SHT31;56185;48.526;9.044;2023-11-19T03:01:54;9.29;93.84
69084;SHT31;56185;48.526;9.044;2023-11-19T03:04:19;9.31;93.79
69084;SHT31;56185;48.526;9.044;2023-11-19T03:06:45;9.32;93.92
69084;SHT31;56185;48.526;9.044;2023-11-19T03:09:10;9.39;94.08
69084;SHT31;56185;48.526;9.044;2023-11-19T03:11:35;9.32;94.04
69084;SHT31;56185;48.526;9.044;2023-11-19T03:14:00;9.31;93.80
69084;SHT31;56185;48.526;9.044;2023-11-19T03:16:26;9.32;94.15
69084;SHT31;56185;48.526;9.044;2023-11-19T03:18:51;9.32;94.78
69084;SHT31;56185;48.526;9.044;2023-11-19T03:21:21;9.42;94.16
69084;SHT31;56185;48.526;9.044;2023-11-19T03:23:51;9.40;94.79
69084;SHT31;56185;48.526;9.044;2023-11-19T03:26:20;9.40;94.18
69084;SHT31;56185;48.526;9.044;2023-11-19T03:28:48;9.49;94.17
69084;SHT31;56185;48.526;9.044;2023-11-19T03:31:15;9.54;94.23
69084;SHT31;56185;48.526;9.044;2023-11-19T03:33:40;9.57;94.09
69084;SHT31;56185;48.526;9.044;2023-11-19T03:36:06;9.63;94.00
69084;SHT31;56185;48.526;9.044;2023-11-19T03:38:31;9.56;94.30
69084;SHT31;56185;48.526;9.044;2023-11-19T03:40:57;9.59;93.49
69084;SHT31;56185;48.526;9.044;2023-11-19T03:43:27;9.62;93.88
69084;SHT31;56185;48.526;9.044;2023-11-19T03:45:52;9.62;93.96
69084;SHT31;56185;48.526;9.044;2023-11-19T03:48:18;9.64;93.86
69084;SHT31;56185;48.526;9.044;2023-11-19T03:50:43;9.60;93.83
69084;SHT31;56185;48.526;9.044;2023-11-19T03:53:11;9.60;93.89
69084;SHT31;56185;48.526;9.044;2023-11-19T03:55:37;9.66;94.02
69084;SHT31;56185;48.526;9.044;2023-11-19T03:58:02;9.73;93.55
69084;SHT31;56185;48.526;9.044;2023-11-19T04:00:27;9.76;93.77
69084;SHT31;56185;48.526;9.044;2023-11-19T04:02:52;9.74;93.93
69084;SHT31;56185;48.526;9.044;2023-11-19T04:05:18;9.81;93.78
69084;SHT31;56185;48.526;9.044;2023-11-19T04:07:43;9.80;93.92
69084;SHT31;56185;48.526;9.044;2023-11-19T04:10:08;9.77;93.83
69084;SHT31;56185;48.526;9.044;2023-11-19T04:12:35;9.79;94.27
69084;SHT31;56185;48.526;9.044;2023-11-19T04:15:00;9.79;94.02
69084;SHT31;56185;48.526;9.044;2023-11-19T04:17:25;9.83;94.01
69084;SHT31;56185;48.526;9.044;2023-11-19T04:19:50;9.79;94.02
69084;SHT31;56185;48.526;9.044;2023-11-19T04:22:16;9.86;93.90
69084;SHT31;56185;48.526;9.044;2023-11-19T04:24:41;9.86;94.36
69084;SHT31;56185;48.526;9.044;2023-11-19T04:27:06;9.86;94.28
69084;SHT31;56185;48.526;9.044;2023-11-19T04:29:32;9.93;94.17
69084;SHT31;56185;48.526;9.044;2023-11-19T04:31:57;9.93;94.58
69084;SHT31;56185;48.526;9.044;2023-11-19T04:34:22;10.01;94.19
69084;SHT31;56185;48.526;9.044;2023-11-19T04:36:47;10.02;94.21
69084;SHT31;56185;48.526;9.044;2023-11-19T04:39:16;10.00;94.07
69084;SHT31;56185;48.526;9.044;2023-11-19T04:41:50;9.94;94.77
69084;SHT31;56185;48.526;9.044;2023-11-19T04:44:16;10.02;94.43
69084;SHT31;56185;48.526;9.044;2023-11-19T04:46:44;10.01;94.86
69084;SHT31;56185;48.526;9.044;2023-11-19T04:49:10;10.00;94.85
69084;SHT31;56185;48.526;9.044;2023-11-19T04:51:42;10.17;94.76
69084;SHT31;56185;48.526;9.044;2023-11-19T04:54:08;10.14;94.76
69084;SHT31;56185;48.526;9.044;2023-11-19T04:56:35;10.21;94.47
69084;SHT31;56185;48.526;9.044;2023-11-19T04:59:00;10.14;94.49
69084;SHT31;56185;48.526;9.044;2023-11-19T05:01:25;10.27;94.05
69084;SHT31;56185;48.526;9.044;2023-11-19T05:03:50;10.30;93.85
69084;SHT31;56185;48.526;9.044;2023-11-19T05:06:16;10.25;94.23
69084;SHT31;56185;48.526;9.044;2023-11-19T05:08:41;10.22;94.17
69084;SHT31;56185;48.526;9.044;2023-11-19T05:11:06;10.28;94.16
69084;SHT31;56185;48.526;9.044;2023-11-19T05:13:31;10.20;94.00
69084;SHT31;56185;48.526;9.044;2023-11-19T05:15:57;10.25;94.04
69084;SHT31;56185;48.526;9.044;2023-11-19T05:18:22;10.30;93.98
69084;SHT31;56185;48.526;9.044;2023-11-19T05:20:47;10.31;93.81
69084;SHT31;56185;48.526;9.044;2023-11-19T05:23:13;10.34;93.64
69084;SHT31;56185;48.526;9.044;2023-11-19T05:25:38;10.48;93.08
69084;SHT31;56185;48.526;9.044;2023-11-19T05:28:03;10.49;93.27
69084;SHT31;56185;48.526;9.044;2023-11-19T05:30:28;10.51;93.31
69084;SHT31;56185;48.526;9.044;2023-11-19T05:32:54;10.48;93.80
69084;SHT31;56185;48.526;9.044;2023-11-19T05:35:19;10.52;93.94
69084;SHT31;56185;48.526;9.044;2023-11-19T05:37:44;10.53;93.68
69084;SHT31;56185;48.526;9.044;2023-11-19T05:40:09;10.53;93.69
69084;SHT31;56185;48.526;9.044;2023-11-19T05:42:37;10.63;93.71
69084;SHT31;56185;48.526;9.044;2023-11-19T05:45:02;10.59;93.45
69084;SHT31;56185;48.526;9.044;2023-11-19T05:47:28;10.61;93.93
69084;SHT31;56185;48.526;9.044;2023-11-19T05:49:53;10.58;93.66
69084;SHT31;56185;48.526;9.044;2023-11-19T05:52:18;10.61;93.87
69084;SHT31;56185;48.526;9.044;2023-11-19T05:54:44;10.62;94.24
69084;SHT31;56185;48.526;9.044;2023-11-19T05:57:09;10.59;93.95
69084;SHT31;56185;48.526;9.044;2023-11-19T05:59:35;10.63;93.84
69084;SHT31;56185;48.526;9.044;2023-11-19T06:02:00;10.66;93.85
69084;SHT31;56185;48.526;9.044;2023-11-19T06:04:26;10.75;93.57
69084;SHT31;56185;48.526;9.044;2023-11-19T06:06:51;10.69;93.77
69084;SHT31;56185;48.526;9.044;2023-11-19T06:09:16;10.69;93.90
69084;SHT31;56185;48.526;9.044;2023-11-19T06:11:42;10.80;93.45
69084;SHT31;56185;48.526;9.044;2023-11-19T06:14:07;10.80;93.69
69084;SHT31;56185;48.526;9.044;2023-11-19T06:16:32;10.79;93.53
69084;SHT31;56185;48.526;9.044;2023-11-19T06:18:57;10.83;93.50
69084;SHT31;56185;48.526;9.044;2023-11-19T06:21:23;10.80;93.62
69084;SHT31;56185;48.526;9.044;2023-11-19T06:23:48;10.80;93.73
69084;SHT31;56185;48.526;9.044;2023-11-19T06:26:13;10.70;94.05
69084;SHT31;56185;48.526;9.044;2023-11-19T06:28:38;10.83;93.88
69084;SHT31;56185;48.526;9.044;2023-11-19T06:31:04;10.82;93.43
69084;SHT31;56185;48.526;9.044;2023-11-19T06:33:29;10.75;93.72
69084;SHT31;56185;48.526;9.044;2023-11-19T06:35:54;10.92;93.53
69084;SHT31;56185;48.526;9.044;2023-11-19T06:38:20;10.82;93.91
69084;SHT31;56185;48.526;9.044;2023-11-19T06:40:45;10.79;93.93
69084;SHT31;56185;48.526;9.044;2023-11-19T06:43:11;10.96;93.17
69084;SHT31;56185;48.526;9.044;2023-11-19T06:45:36;10.88;93.56
69084;SHT31;56185;48.526;9.044;2023-11-19T06:48:01;10.90;93.84
69084;SHT31;56185;48.526;9.044;2023-11-19T06:50:26;10.96;93.50
69084;SHT31;56185;48.526;9.044;2023-11-19T06:52:52;10.92;93.42
69084;SHT31;56185;48.526;9.044;2023-11-19T06:55:17;10.97;93.51
69084;SHT31;56185;48.526;9.044;2023-11-19T06:57:42;10.93;93.55
69084;SHT31;56185;48.526;9.044;2023-11-19T07:00:08;11.00;93.48
69084;SHT31;56185;48.526;9.044;2023-11-19T07:02:34;11.04;93.37
69084;SHT31;56185;48.526;9.044;2023-11-19T07:04:59;11.09;93.17
69084;SHT31;56185;48.526;9.044;2023-11-19T07:07:24;11.01;93.71
69084;SHT31;56185;48.526;9.044;2023-11-19T07:09:50;11.11;93.51
69084;SHT31;56185;48.526;9.044;2023-11-19T07:12:15;11.13;93.42
69084;SHT31;56185;48.526;9.044;2023-11-19T07:14:40;11.13;93.43
69084;SHT31;56185;48.526;9.044;2023-11-19T07:17:05;11.19;93.42
69084;SHT31;56185;48.526;9.044;2023-11-19T07:19:31;11.10;93.52
69084;SHT31;56185;48.526;9.044;2023-11-19T07:21:56;11.20;93.47
69084;SHT31;56185;48.526;9.044;2023-11-19T07:24:22;11.21;93.18
69084;SHT31;56185;48.526;9.044;2023-11-19T07:26:48;11.27;92.91
69084;SHT31;56185;48.526;9.044;2023-11-19T07:29:14;11.27;93.02
69084;SHT31;56185;48.526;9.044;2023-11-19T07:31:39;11.26;93.08
69084;SHT31;56185;48.526;9.044;2023-11-19T07:34:04;11.28;93.02
69084;SHT31;56185;48.526;9.044;2023-11-19T07:36:30;11.30;93.17
69084;SHT31;56185;48.526;9.044;2023-11-19T07:38:55;11.26;93.43
69084;SHT31;56185;48.526;9.044;2023-11-19T07:41:20;11.30;92.68
69084;SHT31;56185;48.526;9.044;2023-11-19T07:43:46;11.32;93.38
69084;SHT31;56185;48.526;9.044;2023-11-19T07:46:11;11.40;93.09
69084;SHT31;56185;48.526;9.044;2023-11-19T07:48:37;11.34;92.88
69084;SHT31;56185;48.526;9.044;2023-11-19T07:51:02;11.50;92.50
69084;SHT31;56185;48.526;9.044;2023-11-19T07:53:27;11.38;92.88
69084;SHT31;56185;48.526;9.044;2023-11-19T07:55:52;11.44;92.63
69084;SHT31;56185;48.526;9.044;2023-11-19T07:58:18;11.51;92.37
69084;SHT31;56185;48.526;9.044;2023-11-19T08:00:43;11.47;92.85
69084;SHT31;56185;48.526;9.044;2023-11-19T08:03:08;11.42;93.25
69084;SHT31;56185;48.526;9.044;2023-11-19T08:05:34;11.45;92.78
69084;SHT31;56185;48.526;9.044;2023-11-19T08:07:59;11.61;91.70
69084;SHT31;56185;48.526;9.044;2023-11-19T08:10:25;11.61;91.79
69084;SHT31;56185;48.526;9.044;2023-11-19T08:12:50;11.65;91.90
69084;SHT31;56185;48.526;9.044;2023-11-19T08:15:16;11.72;91.19
69084;SHT31;56185;48.526;9.044;2023-11-19T08:17:42;11.67;91.35
69084;SHT31;56185;48.526;9.044;2023-11-19T08:20:08;11.64;91.51
69084;SHT31;56185;48.526;9.044;2023-11-19T08:22:37;11.69;91.60
69084;SHT31;56185;48.526;9.044;2023-11-19T08:25:06;11.62;92.19
69084;SHT31;56185;48.526;9.044;2023-11-19T08:27:32;11.72;91.55
69084;SHT31;56185;48.526;9.044;2023-11-19T08:29:58;11.77;91.14
69084;SHT31;56185;48.526;9.044;2023-11-19T08:32:25;11.79;91.16
69084;SHT31;56185;48.526;9.044;2023-11-19T08:34:50;11.67;91.20
69084;SHT31;56185;48.526;9.044;2023-11-19T08:37:15;11.72;91.22
69084;SHT31;56185;48.526;9.044;2023-11-19T08:39:41;11.78;90.93
69084;SHT31;56185;48.526;9.044;2023-11-19T08:42:06;11.83;90.60
69084;SHT31;56185;48.526;9.044;2023-11-19T08:44:31;11.89;90.55
69084;SHT31;56185;48.526;9.044;2023-11-19T08:46:56;12.02;90.23
69084;SHT31;56185;48.526;9.044;2023-11-19T08:49:22;11.92;90.27
69084;SHT31;56185;48.526;9.044;2023-11-19T08:51:47;12.06;90.30
69084;SHT31;56185;48.526;9.044;2023-11-19T08:54:12;12.10;90.38
69084;SHT31;56185;48.526;9.044;2023-11-19T08:56:41;12.22;90.32
69084;SHT31;56185;48.526;9.044;2023-11-19T08:59:06;12.22;90.42
69084;SHT31;56185;48.526;9.044;2023-11-19T09:01:31;12.33;89.82
69084;SHT31;56185;48.526;9.044;2023-11-19T09:03:56;12.43;89.80
69084;SHT31;56185;48.526;9.044;2023-11-19T09:06:22;12.54;89.40
69084;SHT31;56185;48.526;9.044;2023-11-19T09:08:47;12.51;89.27
69084;SHT31;56185;48.526;9.044;2023-11-19T09:11:12;12.54;88.89
69084;SHT31;56185;48.526;9.044;2023-11-19T09:13:37;12.61;88.67
69084;SHT31;56185;48.526;9.044;2023-11-19T09:16:03;12.63;88.83
69084;SHT31;56185;48.526;9.044;2023-11-19T09:18:29;12.64;88.30
69084;SHT31;56185;48.526;9.044;2023-11-19T09:20:54;12.65;88.50
69084;SHT31;56185;48.526;9.044;2023-11-19T09:23:19;12.68;88.84
69084;SHT31;56185;48.526;9.044;2023-11-19T09:25:45;12.61;88.54
69084;SHT31;56185;48.526;9.044;2023-11-19T09:28:10;12.61;88.24
69084;SHT31;56185;48.526;9.044;2023-11-19T09:30:35;12.64;87.90
69084;SHT31;56185;48.526;9.044;2023-11-19T09:33:01;12.73;87.93
69084;SHT31;56185;48.526;9.044;2023-11-19T09:35:26;12.74;88.22
69084;SHT31;56185;48.526;9.044;2023-11-19T09:37:52;12.81;87.67
69084;SHT31;56185;48.526;9.044;2023-11-19T09:40:18;13.02;88.08
69084;SHT31;56185;48.526;9.044;2023-11-19T09:42:44;12.97;87.63
69084;SHT31;56185;48.526;9.044;2023-11-19T09:45:20;13.14;87.00
69084;SHT31;56185;48.526;9.044;2023-11-19T09:47:46;13.11;87.68
69084;SHT31;56185;48.526;9.044;2023-11-19T09:50:17;13.09;86.96
69084;SHT31;56185;48.526;9.044;2023-11-19T09:52:46;13.16;86.78
69084;SHT31;56185;48.526;9.044;2023-11-19T09:55:12;13.26;86.73
69084;SHT31;56185;48.526;9.044;2023-11-19T09:57:40;13.25;86.31
69084;SHT31;56185;48.526;9.044;2023-11-19T10:00:07;13.19;86.13
69084;SHT31;56185;48.526;9.044;2023-11-19T10:02:33;13.11;86.92
69084;SHT31;56185;48.526;9.044;2023-11-19T10:05:00;13.19;86.73
69084;SHT31;56185;48.526;9.044;2023-11-19T10:07:31;13.35;86.76
69084;SHT31;56185;48.526;9.044;2023-11-19T10:10:00;13.36;85.78
69084;SHT31;56185;48.526;9.044;2023-11-19T10:12:26;13.45;85.68
69084;SHT31;56185;48.526;9.044;2023-11-19T10:14:54;13.47;86.02
69084;SHT31;56185;48.526;9.044;2023-11-19T10:17:21;13.52;85.15
69084;SHT31;56185;48.526;9.044;2023-11-19T10:19:46;13.52;85.42
69084;SHT31;56185;48.526;9.044;2023-11-19T10:22:12;13.49;84.82
69084;SHT31;56185;48.526;9.044;2023-11-19T10:24:37;13.57;85.37
69084;SHT31;56185;48.526;9.044;2023-11-19T10:27:06;13.55;85.36
69084;SHT31;56185;48.526;9.044;2023-11-19T10:29:44;13.59;84.99
69084;SHT31;56185;48.526;9.044;2023-11-19T10:32:09;13.55;84.42
69084;SHT31;56185;48.526;9.044;2023-11-19T10:34:35;13.65;83.93
69084;SHT31;56185;48.526;9.044;2023-11-19T10:37:00;13.67;84.31
69084;SHT31;56185;48.526;9.044;2023-11-19T10:39:52;13.69;83.88
69084;SHT31;56185;48.526;9.044;2023-11-19T10:42:17;13.70;84.39
69084;SHT31;56185;48.526;9.044;2023-11-19T10:44:42;13.74;84.14
69084;SHT31;56185;48.526;9.044;2023-11-19T10:47:08;13.73;84.32
69084;SHT31;56185;48.526;9.044;2023-11-19T10:49:34;13.76;84.98
69084;SHT31;56185;48.526;9.044;2023-11-19T10:51:59;13.83;84.28
69084;SHT31;56185;48.526;9.044;2023-11-19T10:54:25;13.83;83.80
69084;SHT31;56185;48.526;9.044;2023-11-19T10:56:54;13.78;83.41
69084;SHT31;56185;48.526;9.044;2023-11-19T10:59:21;13.67;83.30
69084;SHT31;56185;48.526;9.044;2023-11-19T11:01:48;13.71;83.94
69084;SHT31;56185;48.526;9.044;2023-11-19T11:04:22;13.83;83.93
69084;SHT31;56185;48.526;9.044;2023-11-19T11:06:48;13.84;83.81
69084;SHT31;56185;48.526;9.044;2023-11-19T11:09:14;13.86;82.75
69084;SHT31;56185;48.526;9.044;2023-11-19T11:11:40;13.87;83.00
69084;SHT31;56185;48.526;9.044;2023-11-19T11:14:06;13.83;83.08
69084;SHT31;56185;48.526;9.044;2023-11-19T11:16:33;13.87;82.76
69084;SHT31;56185;48.526;9.044;2023-11-19T11:18:59;13.90;82.09
69084;SHT31;56185;48.526;9.044;2023-11-19T11:21:26;14.05;82.13
69084;SHT31;56185;48.526;9.044;2023-11-19T11:32:05;13.97;81.28
69084;SHT31;56185;48.526;9.044;2023-11-19T11:37:47;14.18;81.55
69084;SHT31;56185;48.526;9.044;2023-11-19T11:40:15;14.35;80.85
69084;SHT31;56185;48.526;9.044;2023-11-19T11:42:40;14.25;80.91
69084;SHT31;56185;48.526;9.044;2023-11-19T11:45:12;14.36;81.31
69084;SHT31;56185;48.526;9.044;2023-11-19T11:50:16;14.36;80.76
69084;SHT31;56185;48.526;9.044;2023-11-19T11:55:25;14.38;80.90
69084;SHT31;56185;48.526;9.044;2023-11-19T11:57:51;14.39;80.90
69084;SHT31;56185;48.526;9.044;2023-11-19T12:00:28;14.32;81.39
69084;SHT31;56185;48.526;9.044;2023-11-19T12:03:00;14.26;80.19
69084;SHT31;56185;48.526;9.044;2023-11-19T12:05:26;14.29;81.16
69084;SHT31;56185;48.526;9.044;2023-11-19T12:10:21;14.17;80.65
69084;SHT31;56185;48.526;9.044;2023-11-19T12:12:47;14.26;79.83
69084;SHT31;56185;48.526;9.044;2023-11-19T12:15:12;14.28;79.69
69084;SHT31;56185;48.526;9.044;2023-11-19T12:17:50;14.22;81.14
69084;SHT31;56185;48.526;9.044;2023-11-19T12:20:25;14.28;80.58
69084;SHT31;56185;48.526;9.044;2023-11-19T12:23:16;14.32;79.50
69084;SHT31;56185;48.526;9.044;2023-11-19T12:25:42;14.38;80.84
69084;SHT31;56185;48.526;9.044;2023-11-19T12:28:12;14.44;80.55
69084;SHT31;56185;48.526;9.044;2023-11-19T12:30:38;14.58;79.98
69084;SHT31;56185;48.526;9.044;2023-11-19T12:33:09;14.66;79.91
69084;SHT31;56185;48.526;9.044;2023-11-19T12:35:39;14.61;78.85
69084;SHT31;56185;48.526;9.044;2023-11-19T12:38:04;14.75;78.64
69084;SHT31;56185;48.526;9.044;2023-11-19T12:40:29;14.90;78.16
69084;SHT31;56185;48.526;9.044;2023-11-19T12:42:55;14.79;76.96
69084;SHT31;56185;48.526;9.044;2023-11-19T12:45:21;14.73;77.51
69084;SHT31;56185;48.526;9.044;2023-11-19T12:47:47;14.75;76.79
69084;SHT31;56185;48.526;9.044;2023-11-19T12:50:12;14.76;75.86
69084;SHT31;56185;48.526;9.044;2023-11-19T12:52:38;14.80;74.81
69084;SHT31;56185;48.526;9.044;2023-11-19T12:55:04;14.89;75.68
69084;SHT31;56185;48.526;9.044;2023-11-19T12:57:38;14.85;73.75
69084;SHT31;56185;48.526;9.044;2023-11-19T13:00:04;14.82;74.09
69084;SHT31;56185;48.526;9.044;2023-11-19T13:02:46;14.87;75.01
69084;SHT31;56185;48.526;9.044;2023-11-19T13:05:25;14.77;74.52
69084;SHT31;56185;48.526;9.044;2023-11-19T13:07:50;14.82;73.80
69084;SHT31;56185;48.526;9.044;2023-11-19T13:10:16;14.93;74.07
69084;SHT31;56185;48.526;9.044;2023-11-19T13:12:41;14.93;74.65
69084;SHT31;56185;48.526;9.044;2023-11-19T13:15:24;15.00;74.49
69084;SHT31;56185;48.526;9.044;2023-11-19T13:17:49;14.97;72.20
69084;SHT31;56185;48.526;9.044;2023-11-19T13:20:15;14.87;72.63
69084;SHT31;56185;48.526;9.044;2023-11-19T13:22:59;14.83;73.43
69084;SHT31;56185;48.526;9.044;2023-11-19T13:25:25;14.83;73.19
69084;SHT31;56185;48.526;9.044;2023-11-19T13:27:51;14.77;73.55
69084;SHT31;56185;48.526;9.044;2023-11-19T13:30:16;14.87;74.10
69084;SHT31;56185;48.526;9.044;2023-11-19T13:32:42;14.93;74.32
69084;SHT31;56185;48.526;9.044;2023-11-19T13:35:07;14.94;74.21
69084;SHT31;56185;48.526;9.044;2023-11-19T13:37:32;15.00;73.65
69084;SHT31;56185;48.526;9.044;2023-11-19T13:39:58;15.00;73.13
69084;SHT31;56185;48.526;9.044;2023-11-19T13:42:23;15.10;73.68
69084;SHT31;56185;48.526;9.044;2023-11-19T13:44:48;15.19;73.03
69084;SHT31;56185;48.526;9.044;2023-11-19T13:47:13;15.08;73.61
69084;SHT31;56185;48.526;9.044;2023-11-19T13:49:39;15.13;73.67
69084;SHT31;56185;48.526;9.044;2023-11-19T13:52:04;15.19;73.98
69084;SHT31;56185;48.526;9.044;2023-11-19T13:54:29;15.17;73.09
69084;SHT31;56185;48.526;9.044;2023-11-19T13:56:55;15.02;73.77
69084;SHT31;56185;48.526;9.044;2023-11-19T13:59:20;14.96;73.11
69084;SHT31;56185;48.526;9.044;2023-11-19T14:01:45;14.77;73.45
69084;SHT31;56185;48.526;9.044;2023-11-19T14:04:11;14.79;74.02
69084;SHT31;56185;48.526;9.044;2023-11-19T14:06:36;14.79;74.17
69084;SHT31;56185;48.526;9.044;2023-11-19T14:09:01;14.80;74.30
69084;SHT31;56185;48.526;9.044;2023-11-19T14:11:26;14.76;74.30
69084;SHT31;56185;48.526;9.044;2023-11-19T14:13:52;14.75;73.64
69084;SHT31;56185;48.526;9.044;2023-11-19T14:16:17;14.71;73.08
69084;SHT31;56185;48.526;9.044;2023-11-19T14:18:42;14.66;73.23
69084;SHT31;56185;48.526;9.044;2023-11-19T14:21:07;14.68;72.97
69084;SHT31;56185;48.526;9.044;2023-11-19T14:23:33;14.62;73.93
69084;SHT31;56185;48.526;9.044;2023-11-19T14:25:58;14.63;73.42
69084;SHT31;56185;48.526;9.044;2023-11-19T14:28:23;14.54;74.30
69084;SHT31;56185;48.526;9.044;2023-11-19T14:30:48;14.45;74.07
69084;SHT31;56185;48.526;9.044;2023-11-19T14:33:14;14.41;73.96
69084;SHT31;56185;48.526;9.044;2023-11-19T14:35:39;14.46;74.10
69084;SHT31;56185;48.526;9.044;2023-11-19T14:38:04;14.38;74.00
69084;SHT31;56185;48.526;9.044;2023-11-19T14:40:29;14.41;73.77
69084;SHT31;56185;48.526;9.044;2023-11-19T14:42:55;14.36;74.36
69084;SHT31;56185;48.526;9.044;2023-11-19T14:45:20;14.36;75.45
69084;SHT31;56185;48.526;9.044;2023-11-19T14:47:45;14.34;75.79
69084;SHT31;56185;48.526;9.044;2023-11-19T14:50:11;14.24;75.13
69084;SHT31;56185;48.526;9.044;2023-11-19T14:52:36;14.35;75.19
69084;SHT31;56185;48.526;9.044;2023-11-19T14:55:01;14.38;74.93
69084;SHT31;56185;48.526;9.044;2023-11-19T14:57:26;14.42;75.88
69084;SHT31;56185;48.526;9.044;2023-11-19T14:59:52;14.41;75.82
69084;SHT31;56185;48.526;9.044;2023-11-19T15:02:18;14.42;75.72
69084;SHT31;56185;48.526;9.044;2023-11-19T15:04:44;14.39;75.72
69084;SHT31;56185;48.526;9.044;2023-11-19T15:07:09;14.41;75.60
69084;SHT31;56185;48.526;9.044;2023-11-19T15:09:34;14.46;75.70
69084;SHT31;56185;48.526;9.044;2023-11-19T15:12:00;14.44;75.61
69084;SHT31;56185;48.526;9.044;2023-11-19T15:14:25;14.44;75.45
69084;SHT31;56185;48.526;9.044;2023-11-19T15:16:57;14.32;74.74
69084;SHT31;56185;48.526;9.044;2023-11-19T15:19:23;14.24;73.62
69084;SHT31;56185;48.526;9.044;2023-11-19T15:21:48;14.21;74.06
69084;SHT31;56185;48.526;9.044;2023-11-19T15:24:16;14.20;73.45
69084;SHT31;56185;48.526;9.044;2023-11-19T15:26:41;14.05;73.91
69084;SHT31;56185;48.526;9.044;2023-11-19T15:29:06;14.13;74.98
69084;SHT31;56185;48.526;9.044;2023-11-19T15:31:32;14.08;75.00
69084;SHT31;56185;48.526;9.044;2023-11-19T15:33:57;14.01;74.72
69084;SHT31;56185;48.526;9.044;2023-11-19T15:36:22;13.91;74.58
69084;SHT31;56185;48.526;9.044;2023-11-19T15:38:48;13.90;74.82
69084;SHT31;56185;48.526;9.044;2023-11-19T15:41:13;13.91;74.74
69084;SHT31;56185;48.526;9.044;2023-11-19T15:43:38;13.81;74.82
69084;SHT31;56185;48.526;9.044;2023-11-19T15:46:08;13.78;75.27
69084;SHT31;56185;48.526;9.044;2023-11-19T15:48:33;13.78;75.32